createdAt,value
2023-04-15T00:00:00.582Z,11.05
2023-04-15T00:05:00.617Z,11.05
2023-04-15T00:10:01.022Z,11.05
2023-04-15T00:15:00.493Z,11.05
2023-04-15T00:20:00.494Z,11.05
2023-04-15T00:25:00.502Z,11.05
2023-04-15T00:30:00.547Z,11.05
2023-04-15T00:35:00.366Z,11.05
2023-04-15T00:40:00.603Z,11.05
2023-04-15T00:45:00.674Z,11.16
2023-04-15T00:50:00.438Z,11.16
2023-04-15T00:55:00.494Z,11.08
2023-04-15T01:00:00.594Z,11.58
2023-04-15T01:05:00.350Z,11.75
2023-04-15T01:10:00.558Z,11.77
2023-04-15T01:15:00.620Z,11.25
2023-04-15T01:20:00.372Z,11.25
2023-04-15T01:25:00.695Z,11.25
2023-04-15T01:30:01.127Z,11.84
2023-04-15T01:35:00.302Z,11.92
2023-04-15T01:40:00.675Z,11.92
2023-04-15T01:45:02.555Z,11.92
2023-04-15T01:50:00.354Z,11.5
2023-04-15T01:55:00.643Z,11.5
2023-04-15T02:00:00.453Z,11.88
2023-04-15T02:05:00.496Z,12.05
2023-04-15T02:10:00.612Z,11.54
2023-04-15T02:15:00.531Z,11.54
2023-04-15T02:20:00.354Z,11.54
2023-04-15T02:25:00.541Z,11.54
2023-04-15T02:30:00.700Z,11.54
2023-04-15T02:35:00.363Z,11.81
2023-04-15T02:40:00.626Z,11.81
2023-04-15T02:45:00.440Z,11.81
2023-04-15T02:50:00.555Z,11.81
2023-04-15T02:55:00.581Z,11.54
2023-04-15T03:00:00.634Z,12.06
2023-04-15T03:05:00.359Z,12.06
2023-04-15T03:10:00.461Z,12.06
2023-04-15T03:15:00.612Z,12.06
2023-04-15T03:20:00.885Z,12.06
2023-04-15T03:25:00.630Z,12.06
2023-04-15T03:30:00.846Z,11.81
2023-04-15T03:35:00.336Z,11.56
2023-04-15T03:40:00.588Z,11.25
2023-04-15T03:45:00.428Z,11.25
2023-04-15T03:50:00.381Z,11.77
2023-04-15T03:55:00.520Z,11.63
2023-04-15T04:00:00.435Z,11.63
2023-04-15T04:05:00.509Z,11.12
2023-04-15T04:10:00.454Z,11.12
2023-04-15T04:15:00.583Z,10.94
2023-04-15T04:20:00.343Z,10.85
2023-04-15T04:25:00.479Z,10.84
2023-04-15T04:30:00.703Z,10.84
2023-04-15T04:35:00.333Z,11.36
2023-04-15T04:40:00.568Z,11.36
2023-04-15T04:45:00.475Z,11.36
2023-04-15T04:50:00.439Z,10.81
2023-04-15T04:55:00.441Z,10.81
2023-04-15T05:00:00.920Z,11.23
2023-04-15T05:05:00.319Z,11.23
2023-04-15T05:10:00.455Z,11.23
2023-04-15T05:15:00.588Z,11.3
2023-04-15T05:20:00.331Z,11.31
2023-04-15T05:25:00.502Z,11.36
2023-04-15T05:30:00.440Z,10.84
2023-04-15T05:35:00.478Z,10.81
2023-04-15T05:40:00.665Z,11.39
2023-04-15T05:45:00.438Z,11.39
2023-04-15T05:50:00.343Z,11.39
2023-04-15T05:55:00.715Z,11.39
2023-04-15T06:00:01.465Z,11.66
2023-04-15T06:05:00.553Z,11.66
2023-04-15T06:10:00.507Z,11.15
2023-04-15T06:15:00.538Z,10.91
2023-04-15T06:20:00.461Z,11.23
2023-04-15T06:25:00.561Z,11.23
2023-04-15T06:30:00.459Z,10.99
2023-04-15T06:35:00.352Z,10.99
2023-04-15T06:40:01.008Z,10.99
2023-04-15T06:45:00.408Z,10.99
2023-04-15T06:50:00.486Z,10.47
2023-04-15T06:55:00.477Z,10.64
2023-04-15T07:00:03.286Z,10.64
2023-04-15T07:05:00.349Z,10.64
2023-04-15T07:10:00.519Z,10.64
2023-04-15T07:15:00.388Z,11.02
2023-04-15T07:20:00.368Z,10.88
2023-04-15T07:25:00.473Z,10.88
2023-04-15T07:30:00.913Z,10.88
2023-04-15T07:35:00.320Z,10.88
2023-04-15T07:40:01.818Z,10.88
2023-04-15T07:45:00.422Z,11.39
2023-04-15T07:50:00.401Z,11.39
2023-04-15T07:55:00.471Z,11.98
2023-04-15T08:00:00.669Z,12.49
2023-04-15T08:05:00.371Z,12.46
2023-04-15T08:10:00.548Z,13.04
2023-04-15T08:15:00.515Z,13.63
2023-04-15T08:20:00.670Z,13.63
2023-04-15T08:25:00.557Z,14.15
2023-04-15T08:30:02.107Z,14.15
2023-04-15T08:35:00.389Z,14.15
2023-04-15T08:40:04.879Z,14.15
2023-04-15T08:45:00.421Z,14.15
2023-04-15T08:50:00.449Z,14.04
2023-04-15T08:55:00.526Z,14.04
2023-04-15T09:00:03.017Z,14.74
2023-04-15T09:05:00.341Z,14.74
2023-04-15T09:10:00.568Z,15.08
2023-04-15T09:15:00.423Z,15.08
2023-04-15T09:20:00.918Z,15.08
2023-04-15T09:25:00.408Z,15.08
2023-04-15T09:30:00.418Z,15.18
2023-04-15T09:35:00.496Z,15.18
2023-04-15T09:40:00.577Z,14.67
2023-04-15T09:45:00.373Z,14.17
2023-04-15T09:50:00.569Z,14.17
2023-04-15T09:55:00.476Z,13.67
2023-04-15T10:00:00.478Z,13.16
2023-04-15T10:05:00.535Z,13.16
2023-04-15T10:10:00.499Z,13.16
2023-04-15T10:15:00.439Z,13.16
2023-04-15T10:20:00.587Z,13.7
2023-04-15T10:25:00.372Z,13.7
2023-04-15T10:30:00.432Z,13.12
2023-04-15T10:35:00.476Z,13.73
2023-04-15T10:40:00.591Z,13.73
2023-04-15T10:45:00.413Z,13.91
2023-04-15T10:50:00.498Z,14.25
2023-04-15T10:55:00.471Z,13.74
2023-04-15T11:00:00.738Z,13.74
2023-04-15T11:05:00.903Z,13.74
2023-04-15T11:10:00.409Z,14.25
2023-04-15T11:15:00.457Z,14.25
2023-04-15T11:20:00.496Z,14.77
2023-04-15T11:25:00.454Z,14.77
2023-04-15T11:30:00.573Z,14.77
2023-04-15T11:35:00.555Z,14.25
2023-04-15T11:40:00.484Z,14.25
2023-04-15T11:45:00.391Z,14.07
2023-04-15T11:50:00.480Z,14.07
2023-04-15T11:55:00.420Z,14.07
2023-04-15T12:00:00.416Z,14.07
2023-04-15T12:05:00.516Z,14.07
2023-04-15T12:10:00.396Z,14.07
2023-04-15T12:15:00.486Z,14.07
2023-04-15T12:20:00.997Z,14.53
2023-04-15T12:25:00.384Z,14.53
2023-04-15T12:30:00.622Z,14.53
2023-04-15T12:35:00.410Z,14.53
2023-04-15T12:40:00.486Z,14.6
2023-04-15T12:45:00.430Z,14.6
2023-04-15T12:50:00.454Z,14.03
2023-04-15T12:55:00.436Z,14.03
2023-04-15T13:00:00.486Z,14.53
2023-04-15T13:05:01.060Z,14.53
2023-04-15T13:10:00.410Z,14.53
2023-04-15T13:15:00.396Z,14.47
2023-04-15T13:20:00.450Z,15
2023-04-15T13:25:00.466Z,14.47
2023-04-15T13:30:00.375Z,14.47
2023-04-15T13:35:00.585Z,14.47
2023-04-15T13:40:00.413Z,14.42
2023-04-15T13:45:00.481Z,14.53
2023-04-15T13:50:00.469Z,14.53
2023-04-15T13:55:07.403Z,14.53
2023-04-15T14:00:00.463Z,14.53
2023-04-15T14:05:00.478Z,14.53
2023-04-15T14:10:00.390Z,14.53
2023-04-15T14:15:00.511Z,14.53
2023-04-15T14:20:00.427Z,14.53
2023-04-15T14:25:00.416Z,14.53
2023-04-15T14:30:00.526Z,14.82
2023-04-15T14:35:00.346Z,14.74
2023-04-15T14:40:00.585Z,14.74
2023-04-15T14:45:00.628Z,14.74
2023-04-15T14:50:00.401Z,14.74
2023-04-15T14:55:00.668Z,14.46
2023-04-15T15:00:01.335Z,14.46
2023-04-15T15:05:00.466Z,15.55
2023-04-15T15:10:00.462Z,15.55
2023-04-15T15:15:01.570Z,16.08
2023-04-15T15:20:00.426Z,16.08
2023-04-15T15:25:00.466Z,16.22
2023-04-15T15:30:00.640Z,16.22
2023-04-15T15:35:00.383Z,15.59
2023-04-15T15:40:00.616Z,16.1
2023-04-15T15:45:00.585Z,15.58
2023-04-15T15:50:00.419Z,14.84
2023-04-15T15:55:00.366Z,14.84
2023-04-15T16:00:11.214Z,14.76
2023-04-15T16:05:00.703Z,14.76
2023-04-15T16:10:00.423Z,14.76
2023-04-15T16:15:00.512Z,14.76
2023-04-15T16:20:01.155Z,14.28
2023-04-15T16:25:00.423Z,14.53
2023-04-15T16:30:00.654Z,14.22
2023-04-15T16:35:00.397Z,14.32
2023-04-15T16:40:00.491Z,14.32
2023-04-15T16:45:00.510Z,14.15
2023-04-15T16:50:00.464Z,14.15
2023-04-15T16:55:00.348Z,13.63
2023-04-15T17:00:00.478Z,13.63
2023-04-15T17:05:00.565Z,13.69
2023-04-15T17:10:00.320Z,13.69
2023-04-15T17:15:00.477Z,13.8
2023-04-15T17:20:00.436Z,13.94
2023-04-15T17:25:00.478Z,14.45
2023-04-15T17:30:00.625Z,14.45
2023-04-15T17:35:00.517Z,14.45
2023-04-15T17:40:00.334Z,13.94
2023-04-15T17:45:00.563Z,13.94
2023-04-15T17:50:00.416Z,13.64
2023-04-15T17:55:00.458Z,13.49
2023-04-15T18:00:01.141Z,13.32
2023-04-15T18:05:00.765Z,13.25
2023-04-15T18:10:00.438Z,13.05
2023-04-15T18:15:00.612Z,12.78
2023-04-15T18:20:00.437Z,12.67
2023-04-15T18:25:00.449Z,12.67
2023-04-15T18:30:01.395Z,12.16
2023-04-15T18:35:00.505Z,12.16
2023-04-15T18:40:00.432Z,11.64
2023-04-15T18:45:00.828Z,11.64
2023-04-15T18:50:00.376Z,11.64
2023-04-15T18:55:00.378Z,12.04
2023-04-15T19:00:00.951Z,11.77
2023-04-15T19:05:00.355Z,12.11
2023-04-15T19:10:00.391Z,12.04
2023-04-15T19:15:00.516Z,12.04
2023-04-15T19:20:00.338Z,11.71
2023-04-15T19:25:00.389Z,11.8
2023-04-15T19:30:00.685Z,11.47
2023-04-15T19:35:00.334Z,12.01
2023-04-15T19:40:00.501Z,11.41
2023-04-15T19:45:00.597Z,10.88
2023-04-15T19:50:00.710Z,10.88
2023-04-15T19:55:00.339Z,11.08
2023-04-15T20:00:00.510Z,11.08
2023-04-15T20:05:00.364Z,10.05
2023-04-15T20:10:00.470Z,10.05
2023-04-15T20:15:00.860Z,9.64
2023-04-15T20:20:00.526Z,10.17
2023-04-15T20:25:00.488Z,10.39
2023-04-15T20:30:00.908Z,10.39
2023-04-15T20:35:00.392Z,9.89
2023-04-15T20:40:00.491Z,10.42
2023-04-15T20:45:00.534Z,10.85
2023-04-15T20:50:00.389Z,10.33
2023-04-15T20:55:00.332Z,10.32
2023-04-15T21:00:00.491Z,10.06
2023-04-15T21:05:00.330Z,10.06
2023-04-15T21:10:00.382Z,10.82
2023-04-15T21:15:00.608Z,10.27
2023-04-15T21:20:00.324Z,9.68
2023-04-15T21:25:00.476Z,9.54
2023-04-15T21:30:00.482Z,9.92
2023-04-15T21:35:00.622Z,9.38
2023-04-15T21:40:00.319Z,9.82
2023-04-15T21:45:00.564Z,10.39
2023-04-15T21:50:00.337Z,10.26
2023-04-15T21:55:00.464Z,10.17
2023-04-15T22:00:00.671Z,10.33
2023-04-15T22:05:00.421Z,10.43
2023-04-15T22:10:00.447Z,9.9
2023-04-15T22:15:00.589Z,10.3
2023-04-15T22:20:00.345Z,10.1
2023-04-15T22:25:00.402Z,10.64
2023-04-15T22:30:00.574Z,9.95
2023-04-15T22:35:00.454Z,10.46
2023-04-15T22:40:00.315Z,9.78
2023-04-15T22:45:00.546Z,9.27
2023-04-15T22:50:00.346Z,9.82
2023-04-15T22:55:00.411Z,10.12
2023-04-15T23:00:00.595Z,9.5
2023-04-15T23:05:00.550Z,9.44
2023-04-15T23:10:00.403Z,9.5
2023-04-15T23:15:00.617Z,9.2
2023-04-15T23:20:00.314Z,8.69
2023-04-15T23:25:00.492Z,8.52
2023-04-15T23:30:00.505Z,8.52
2023-04-15T23:35:00.410Z,7.96
2023-04-15T23:40:00.361Z,7.96
2023-04-15T23:45:00.465Z,7.96
2023-04-15T23:50:00.314Z,7.48
2023-04-15T23:55:00.386Z,7.48
